createdAt,value
2022-08-16T00:00:39.243Z,6.50
2022-08-16T00:01:40.981Z,6.50
2022-08-16T00:02:37.668Z,6.70
2022-08-16T00:03:38.012Z,6.10
2022-08-16T00:04:38.631Z,6.60
2022-08-16T00:05:37.612Z,6.50
2022-08-16T00:06:39.471Z,6.50
2022-08-16T00:07:37.577Z,6.90
2022-08-16T00:08:37.842Z,6.40
2022-08-16T00:09:37.528Z,6.40
2022-08-16T00:10:38.528Z,6.10
2022-08-16T00:11:37.529Z,6.10
2022-08-16T00:12:37.483Z,6.00
2022-08-16T00:13:41.864Z,6.30
2022-08-16T00:14:38.441Z,6.30
2022-08-16T00:15:52.112Z,6.50
2022-08-16T00:17:00.515Z,6.30
2022-08-16T00:17:56.386Z,6.40
2022-08-16T00:18:38.363Z,6.30
2022-08-16T00:19:41.883Z,6.50
2022-08-16T00:20:37.340Z,6.30
2022-08-16T00:21:37.329Z,6.50
2022-08-16T00:22:37.282Z,6.40
2022-08-16T00:23:40.326Z,6.50
2022-08-16T00:24:38.241Z,6.40
2022-08-16T00:26:36.230Z,6.80
2022-08-16T00:26:44.392Z,6.40
2022-08-16T00:27:38.185Z,6.80
2022-08-16T00:28:37.163Z,6.60
2022-08-16T00:29:37.144Z,6.30
2022-08-16T00:30:37.126Z,6.40
2022-08-16T00:31:58.631Z,6.60
2022-08-16T00:32:43.236Z,6.60
2022-08-16T00:33:39.078Z,6.50
2022-08-16T00:34:44.431Z,6.40
2022-08-16T00:35:38.025Z,6.70
2022-08-16T00:36:37.031Z,6.30
2022-08-16T00:37:57.783Z,6.30
2022-08-16T00:38:40.907Z,6.80
2022-08-16T00:39:39.001Z,6.20
2022-08-16T00:40:37.023Z,6.50
2022-08-16T00:41:38.266Z,6.50
2022-08-16T00:42:36.913Z,6.20
2022-08-16T00:43:43.318Z,6.30
2022-08-16T00:44:37.841Z,6.10
2022-08-16T00:45:36.821Z,7.20
2022-08-16T00:46:37.793Z,7.10
2022-08-16T00:47:37.815Z,6.10
2022-08-16T00:48:44.187Z,6.20
2022-08-16T00:49:39.730Z,5.90
2022-08-16T00:50:37.722Z,6.00
2022-08-16T00:51:38.687Z,5.80
2022-08-16T00:52:36.682Z,6.10
2022-08-16T00:53:36.662Z,6.20
2022-08-16T00:54:36.640Z,6.20
2022-08-16T00:55:38.113Z,5.70
2022-08-16T00:56:56.466Z,6.50
2022-08-16T00:57:59.162Z,5.70
2022-08-16T00:58:37.562Z,6.30
2022-08-16T00:59:36.539Z,6.20
2022-08-16T01:00:37.555Z,5.90
2022-08-16T01:01:36.503Z,5.50
2022-08-16T01:02:36.510Z,6.00
2022-08-16T01:03:36.458Z,6.30
2022-08-16T01:04:36.439Z,6.00
2022-08-16T01:05:36.421Z,5.60
2022-08-16T01:06:48.857Z,5.60
2022-08-16T01:07:43.808Z,5.60
2022-08-16T01:08:37.358Z,5.60
2022-08-16T01:09:37.266Z,5.60
2022-08-16T01:10:36.317Z,5.40
2022-08-16T01:11:36.295Z,5.40
2022-08-16T01:12:37.300Z,5.40
2022-08-16T01:13:36.254Z,5.40
2022-08-16T01:14:36.237Z,5.60
2022-08-16T01:15:36.214Z,5.80
2022-08-16T01:16:36.196Z,5.40
2022-08-16T01:17:36.639Z,5.60
2022-08-16T01:18:40.280Z,5.60
2022-08-16T01:19:36.130Z,5.70
2022-08-16T01:20:36.110Z,5.80
2022-08-16T01:21:36.094Z,5.40
2022-08-16T01:22:47.862Z,5.30
2022-08-16T01:24:00.727Z,5.40
2022-08-16T01:24:51.477Z,5.80
2022-08-16T01:25:37.010Z,5.50
2022-08-16T01:26:35.988Z,5.50
2022-08-16T01:27:35.992Z,5.30
2022-08-16T01:28:38.978Z,5.60
2022-08-16T01:29:58.648Z,5.60
2022-08-16T01:30:36.724Z,5.20
2022-08-16T01:31:42.443Z,5.30
2022-08-16T01:32:36.889Z,5.50
2022-08-16T01:33:36.101Z,5.20
2022-08-16T01:34:35.821Z,5.30
2022-08-16T01:35:36.798Z,5.20
2022-08-16T01:36:35.776Z,5.10
2022-08-16T01:37:36.122Z,5.40
2022-08-16T01:38:35.740Z,5.00
2022-08-16T01:39:35.797Z,5.50
2022-08-16T01:40:35.692Z,5.40
2022-08-16T01:41:41.976Z,5.40
2022-08-16T01:42:36.679Z,5.30
2022-08-16T01:43:35.627Z,5.30
2022-08-16T01:44:37.818Z,5.20
2022-08-16T01:45:40.822Z,5.00
2022-08-16T01:46:39.709Z,5.10
2022-08-16T01:47:35.575Z,5.40
2022-08-16T01:48:35.523Z,5.00
2022-08-16T01:49:42.944Z,5.40
2022-08-16T01:50:43.440Z,5.10
2022-08-16T01:51:36.456Z,5.30
2022-08-16T01:52:35.464Z,5.00
2022-08-16T01:53:35.416Z,5.10
2022-08-16T01:54:37.563Z,5.10
2022-08-16T01:55:35.782Z,5.50
2022-08-16T01:56:35.355Z,5.30
2022-08-16T01:57:35.580Z,5.40
2022-08-16T01:58:35.313Z,5.20
2022-08-16T01:59:35.295Z,5.30
2022-08-16T02:00:35.273Z,5.10
2022-08-16T02:01:35.320Z,5.30
2022-08-16T02:02:36.256Z,5.40
2022-08-16T02:03:36.203Z,5.10
2022-08-16T02:04:49.402Z,5.00
2022-08-16T02:05:36.165Z,5.40
2022-08-16T02:06:37.896Z,5.10
2022-08-16T02:07:35.150Z,5.00
2022-08-16T02:08:35.099Z,5.10
2022-08-16T02:09:35.080Z,5.00
2022-08-16T02:10:35.060Z,5.20
2022-08-16T02:11:47.736Z,5.00
2022-08-16T02:12:50.481Z,5.00
2022-08-16T02:13:36.727Z,4.60
2022-08-16T02:14:35.985Z,5.10
2022-08-16T02:15:40.387Z,5.10
2022-08-16T02:16:35.931Z,4.70
2022-08-16T02:17:34.938Z,4.90
2022-08-16T02:18:34.891Z,4.80
2022-08-16T02:20:00.108Z,5.20
2022-08-16T02:20:35.846Z,4.80
2022-08-16T02:21:34.825Z,4.80
2022-08-16T02:22:35.974Z,4.90
2022-08-16T02:23:35.783Z,4.80
2022-08-16T02:24:40.933Z,5.00
2022-08-16T02:25:50.688Z,5.10
2022-08-16T02:26:35.720Z,4.80
2022-08-16T02:27:34.735Z,4.70
2022-08-16T02:28:34.678Z,5.00
2022-08-16T02:29:34.653Z,4.90
2022-08-16T02:30:36.648Z,4.90
2022-08-16T02:32:04.129Z,4.90
2022-08-16T02:32:50.421Z,4.90
2022-08-16T02:33:44.288Z,4.70
2022-08-16T02:34:40.979Z,4.80
2022-08-16T02:35:53.935Z,4.70
2022-08-16T02:36:50.502Z,4.80
2022-08-16T02:37:51.351Z,4.90
2022-08-16T02:38:35.499Z,4.80
2022-08-16T02:39:34.482Z,5.10
2022-08-16T02:40:34.442Z,5.00
2022-08-16T02:41:34.409Z,4.70
2022-08-16T02:42:35.385Z,4.80
2022-08-16T02:43:34.393Z,4.70
2022-08-16T02:44:34.344Z,5.10
2022-08-16T02:45:34.321Z,5.10
2022-08-16T02:46:34.301Z,5.20
2022-08-16T02:47:34.277Z,5.00
2022-08-16T02:48:35.281Z,5.20
2022-08-16T02:49:59.345Z,5.10
2022-08-16T02:50:53.976Z,5.20
2022-08-16T02:51:35.719Z,5.00
2022-08-16T02:52:34.174Z,5.20
2022-08-16T02:53:34.182Z,5.20
2022-08-16T02:54:34.134Z,4.90
2022-08-16T02:55:40.807Z,5.20
2022-08-16T02:56:35.095Z,5.00
2022-08-16T02:57:34.071Z,5.00
2022-08-16T02:58:34.076Z,5.20
2022-08-16T02:59:41.474Z,5.50
2022-08-16T03:00:35.275Z,5.20
2022-08-16T03:01:37.225Z,5.00
2022-08-16T03:02:33.964Z,4.90
2022-08-16T03:04:28.963Z,5.00
2022-08-16T03:04:50.091Z,4.90
2022-08-16T03:05:34.900Z,5.30
2022-08-16T03:06:39.069Z,5.10
2022-08-16T03:07:37.037Z,5.00
2022-08-16T03:08:50.365Z,5.10
2022-08-16T03:09:34.815Z,5.30
2022-08-16T03:10:34.168Z,5.10
2022-08-16T03:11:35.561Z,4.80
2022-08-16T03:12:37.653Z,5.10
2022-08-16T03:13:40.304Z,5.10
2022-08-16T03:14:34.712Z,5.20
2022-08-16T03:15:33.679Z,5.20
2022-08-16T03:16:39.132Z,5.10
2022-08-16T03:17:34.639Z,5.00
2022-08-16T03:18:34.658Z,4.80
2022-08-16T03:19:47.347Z,4.80
2022-08-16T03:20:34.578Z,4.60
2022-08-16T03:21:37.391Z,4.60
2022-08-16T03:22:33.533Z,4.80
2022-08-16T03:23:35.625Z,4.60
2022-08-16T03:24:33.495Z,4.60
2022-08-16T03:25:40.969Z,5.00
2022-08-16T03:26:34.450Z,4.90
2022-08-16T03:27:33.495Z,4.80
2022-08-16T03:28:33.723Z,4.90
2022-08-16T03:29:33.402Z,4.90
2022-08-16T03:30:33.358Z,5.00
2022-08-16T03:31:34.485Z,5.30
2022-08-16T03:32:33.318Z,4.80
2022-08-16T03:33:33.320Z,4.70
2022-08-16T03:34:33.268Z,4.30
2022-08-16T03:35:34.233Z,4.60
2022-08-16T03:36:33.229Z,4.40
2022-08-16T03:37:33.207Z,4.80
2022-08-16T03:38:35.247Z,4.50
2022-08-16T03:39:33.192Z,4.70
2022-08-16T03:40:33.847Z,4.50
2022-08-16T03:41:50.255Z,4.40
2022-08-16T03:42:34.099Z,4.60
2022-08-16T03:43:51.667Z,4.70
2022-08-16T03:44:43.956Z,4.40
2022-08-16T03:45:34.033Z,4.70
2022-08-16T03:46:47.799Z,4.60
2022-08-16T03:47:34.377Z,4.50
2022-08-16T03:48:36.868Z,4.30
2022-08-16T03:49:36.566Z,4.60
2022-08-16T03:50:32.929Z,4.30
2022-08-16T03:51:32.908Z,4.40
2022-08-16T03:52:32.887Z,4.30
2022-08-16T03:53:37.588Z,4.20
2022-08-16T03:54:32.843Z,4.60
2022-08-16T03:55:45.330Z,4.10
2022-08-16T03:56:34.601Z,4.10
2022-08-16T03:57:35.704Z,4.60
2022-08-16T03:58:32.790Z,4.30
2022-08-16T03:59:32.744Z,4.10
2022-08-16T04:00:36.129Z,4.40
2022-08-16T04:01:33.733Z,4.10
2022-08-16T04:02:32.673Z,4.20
2022-08-16T04:03:32.685Z,4.30
2022-08-16T04:04:34.003Z,4.20
2022-08-16T04:05:33.611Z,4.00
2022-08-16T04:06:32.588Z,4.60
2022-08-16T04:07:33.457Z,4.10
2022-08-16T04:08:32.542Z,4.10
2022-08-16T04:09:35.375Z,4.20
2022-08-16T04:10:36.967Z,4.40
2022-08-16T04:11:36.944Z,4.00
2022-08-16T04:12:54.317Z,4.30
2022-08-16T04:14:01.276Z,4.30
2022-08-16T04:14:33.658Z,4.20
2022-08-16T04:15:32.395Z,4.50
2022-08-16T04:16:32.401Z,4.70
2022-08-16T04:17:32.357Z,4.20
2022-08-16T04:18:32.335Z,4.50
2022-08-16T04:19:32.336Z,4.10
2022-08-16T04:20:34.001Z,4.60
2022-08-16T04:21:33.271Z,4.20
2022-08-16T04:22:32.250Z,4.40
2022-08-16T04:23:32.229Z,4.20
2022-08-16T04:24:32.234Z,4.40
2022-08-16T04:25:32.189Z,4.20
2022-08-16T04:26:32.477Z,4.20
2022-08-16T04:27:32.145Z,4.20
2022-08-16T04:28:56.811Z,4.20
2022-08-16T04:29:44.001Z,4.20
2022-08-16T04:30:34.969Z,4.10
2022-08-16T04:31:32.081Z,4.10
2022-08-16T04:32:32.045Z,3.90
2022-08-16T04:33:34.893Z,4.10
2022-08-16T04:34:32.488Z,4.00
2022-08-16T04:35:33.953Z,4.10
2022-08-16T04:36:31.966Z,3.90
2022-08-16T04:37:31.950Z,4.00
2022-08-16T04:38:32.953Z,4.00
2022-08-16T04:39:44.854Z,4.10
2022-08-16T04:40:32.924Z,4.20
2022-08-16T04:41:32.822Z,4.00
2022-08-16T04:42:35.154Z,4.40
2022-08-16T04:43:31.855Z,4.00
2022-08-16T04:44:52.524Z,4.40
2022-08-16T04:45:35.994Z,4.80
2022-08-16T04:47:03.439Z,4.60
2022-08-16T04:47:33.270Z,4.50
2022-08-16T04:48:32.725Z,4.80
2022-08-16T04:49:43.814Z,4.80
2022-08-16T04:50:32.703Z,4.80
2022-08-16T04:51:36.034Z,4.90
2022-08-16T04:52:33.293Z,5.00
2022-08-16T04:53:32.680Z,5.10
2022-08-16T04:54:31.633Z,4.60
2022-08-16T04:55:37.767Z,5.00
2022-08-16T04:56:31.592Z,5.00
2022-08-16T04:57:31.577Z,5.00
2022-08-16T04:58:43.915Z,5.00
2022-08-16T04:59:32.537Z,5.10
2022-08-16T05:00:33.779Z,4.70
2022-08-16T05:01:58.132Z,4.80
2022-08-16T05:02:41.760Z,4.70
2022-08-16T05:03:32.555Z,4.90
2022-08-16T05:04:31.448Z,4.50
2022-08-16T05:05:36.638Z,4.70
2022-08-16T05:06:42.341Z,4.70
2022-08-16T05:07:32.391Z,4.40
2022-08-16T05:08:31.477Z,4.20
2022-08-16T05:09:31.380Z,4.40
2022-08-16T05:10:32.345Z,3.90
2022-08-16T05:11:32.162Z,4.00
2022-08-16T05:12:31.324Z,4.40
2022-08-16T05:13:40.653Z,4.40
2022-08-16T05:14:45.744Z,4.20
2022-08-16T05:15:32.249Z,4.30
2022-08-16T05:16:31.233Z,4.30
2022-08-16T05:17:31.211Z,4.30
2022-08-16T05:18:31.196Z,4.00
2022-08-16T05:19:36.211Z,4.10
2022-08-16T05:20:38.579Z,4.30
2022-08-16T05:21:35.933Z,4.50
2022-08-16T05:22:32.123Z,4.20
2022-08-16T05:23:31.719Z,4.10
2022-08-16T05:24:31.114Z,4.30
2022-08-16T05:25:41.009Z,4.80
2022-08-16T05:26:32.057Z,4.80
2022-08-16T05:27:31.036Z,4.40
2022-08-16T05:28:37.477Z,4.20
2022-08-16T05:29:59.944Z,4.70
2022-08-16T05:30:34.467Z,4.20
2022-08-16T05:31:31.975Z,4.30
2022-08-16T05:32:33.739Z,4.20
2022-08-16T05:33:31.931Z,4.30
2022-08-16T05:34:30.940Z,4.10
2022-08-16T05:35:30.897Z,4.50
2022-08-16T05:36:36.842Z,4.50
2022-08-16T05:37:39.980Z,4.40
2022-08-16T05:38:39.067Z,4.80
2022-08-16T05:39:33.336Z,4.70
2022-08-16T05:40:31.821Z,4.40
2022-08-16T05:41:30.797Z,5.20
2022-08-16T05:42:35.939Z,4.90
2022-08-16T05:43:31.963Z,5.20
2022-08-16T05:44:31.766Z,5.10
2022-08-16T05:45:31.729Z,4.70
2022-08-16T05:46:31.452Z,4.80
2022-08-16T05:47:31.693Z,5.00
2022-08-16T05:48:30.676Z,5.00
2022-08-16T05:49:38.901Z,5.30
2022-08-16T05:50:34.119Z,5.60
2022-08-16T05:51:38.822Z,5.50
2022-08-16T05:52:31.610Z,5.30
2022-08-16T05:53:30.592Z,5.10
2022-08-16T05:54:31.605Z,5.60
2022-08-16T05:55:30.561Z,5.30
2022-08-16T05:56:30.571Z,5.50
2022-08-16T05:57:35.619Z,5.70
2022-08-16T05:58:33.450Z,5.70
2022-08-16T05:59:30.518Z,5.40
2022-08-16T06:00:30.476Z,5.30
2022-08-16T06:01:30.485Z,5.40
2022-08-16T06:02:43.451Z,5.60
2022-08-16T06:03:31.441Z,5.30
2022-08-16T06:04:35.260Z,6.00
2022-08-16T06:05:31.395Z,5.50
2022-08-16T06:06:30.382Z,5.60
2022-08-16T06:07:32.139Z,5.80
2022-08-16T06:08:30.947Z,5.50
2022-08-16T06:09:43.736Z,5.40
2022-08-16T06:10:32.231Z,5.60
2022-08-16T06:11:30.300Z,5.40
2022-08-16T06:12:31.035Z,5.50
2022-08-16T06:13:32.608Z,5.60
2022-08-16T06:14:30.281Z,5.60
2022-08-16T06:15:30.565Z,5.60
2022-08-16T06:16:30.221Z,5.80
2022-08-16T06:17:43.018Z,5.40
2022-08-16T06:18:31.188Z,5.50
2022-08-16T06:19:33.787Z,5.20
2022-08-16T06:20:35.627Z,5.10
2022-08-16T06:21:31.144Z,5.40
2022-08-16T06:22:39.274Z,5.10
2022-08-16T06:23:32.366Z,4.80
2022-08-16T06:24:53.814Z,5.00
2022-08-16T06:25:36.200Z,4.90
2022-08-16T06:26:37.076Z,4.60
2022-08-16T06:27:40.693Z,4.70
2022-08-16T06:28:36.230Z,4.80
2022-08-16T06:29:31.043Z,4.80
2022-08-16T06:30:29.999Z,4.90
2022-08-16T06:31:29.980Z,4.90
2022-08-16T06:32:34.600Z,4.80
2022-08-16T06:33:42.070Z,4.70
2022-08-16T06:34:53.188Z,4.60
2022-08-16T06:35:39.002Z,4.90
2022-08-16T06:36:32.167Z,5.00
2022-08-16T06:37:37.268Z,4.30
2022-08-16T06:38:33.512Z,4.90
2022-08-16T06:39:29.910Z,4.90
2022-08-16T06:40:33.668Z,6.10
2022-08-16T06:41:29.836Z,5.80
2022-08-16T06:42:39.644Z,5.50
2022-08-16T06:43:30.801Z,6.10
2022-08-16T06:44:29.815Z,5.80
2022-08-16T06:45:29.771Z,6.10
2022-08-16T06:46:31.859Z,6.20
2022-08-16T06:47:52.548Z,5.50
2022-08-16T06:48:33.211Z,5.30
2022-08-16T06:49:29.737Z,5.80
2022-08-16T06:50:30.043Z,5.90
2022-08-16T06:51:46.556Z,5.80
2022-08-16T06:52:59.642Z,5.70
2022-08-16T06:53:30.645Z,5.90
2022-08-16T06:54:29.661Z,6.20
2022-08-16T06:55:34.546Z,5.80
2022-08-16T06:56:31.600Z,5.70
2022-08-16T06:57:29.611Z,5.70
2022-08-16T06:58:31.334Z,5.70
2022-08-16T06:59:29.579Z,5.50
2022-08-16T07:00:30.536Z,5.10
2022-08-16T07:01:44.843Z,5.40
2022-08-16T07:02:32.985Z,5.00
2022-08-16T07:03:32.552Z,4.90
2022-08-16T07:04:33.068Z,4.80
2022-08-16T07:05:41.863Z,4.50
2022-08-16T07:06:30.447Z,4.40
2022-08-16T07:07:33.818Z,4.50
2022-08-16T07:08:31.448Z,4.20
2022-08-16T07:09:29.850Z,5.00
2022-08-16T07:10:29.433Z,5.10
2022-08-16T07:11:45.738Z,5.60
2022-08-16T07:12:36.644Z,6.00
2022-08-16T07:14:22.667Z,5.70
2022-08-16T07:14:31.328Z,4.90
2022-08-16T07:15:29.303Z,5.20
2022-08-16T07:16:29.292Z,4.70
2022-08-16T07:17:29.277Z,4.10
2022-08-16T07:18:29.284Z,4.10
2022-08-16T07:20:01.729Z,4.30
2022-08-16T07:20:47.026Z,4.70
2022-08-16T07:21:46.368Z,4.40
2022-08-16T07:22:38.316Z,4.70
2022-08-16T07:23:38.621Z,5.10
2022-08-16T07:24:31.207Z,5.40
2022-08-16T07:25:29.152Z,4.90
2022-08-16T07:26:29.131Z,4.90
2022-08-16T07:27:29.125Z,4.60
2022-08-16T07:28:29.134Z,4.00
2022-08-16T07:29:31.763Z,4.30
2022-08-16T07:30:39.029Z,4.30
2022-08-16T07:31:37.558Z,4.30
2022-08-16T07:32:31.661Z,5.40
2022-08-16T07:33:53.151Z,4.60
2022-08-16T07:34:34.872Z,4.70
2022-08-16T07:35:29.991Z,4.20
2022-08-16T07:36:29.104Z,4.10
2022-08-16T07:37:28.962Z,4.70
2022-08-16T07:38:33.770Z,4.20
2022-08-16T07:39:33.790Z,4.30
2022-08-16T07:40:56.287Z,4.20
2022-08-16T07:41:30.907Z,4.60
2022-08-16T07:42:34.996Z,4.20
2022-08-16T07:43:29.924Z,4.00
2022-08-16T07:44:28.859Z,4.00
2022-08-16T07:45:29.840Z,4.10
2022-08-16T07:46:39.319Z,4.30
2022-08-16T07:47:31.422Z,4.30
2022-08-16T07:48:28.824Z,4.20
2022-08-16T07:49:32.410Z,4.40
2022-08-16T07:50:55.871Z,4.20
2022-08-16T07:51:29.815Z,4.30
2022-08-16T07:52:29.970Z,4.40
2022-08-16T07:53:29.277Z,4.20
2022-08-16T07:54:32.307Z,4.30
2022-08-16T07:55:29.684Z,3.80
2022-08-16T07:56:33.893Z,4.20
2022-08-16T07:57:29.666Z,4.10
2022-08-16T07:58:34.822Z,4.10
2022-08-16T07:59:45.906Z,3.90
2022-08-16T08:00:29.612Z,4.30
2022-08-16T08:01:28.618Z,4.40
2022-08-16T08:02:28.587Z,4.10
2022-08-16T08:03:35.913Z,4.00
2022-08-16T08:04:33.594Z,4.20
2022-08-16T08:05:35.816Z,4.50
2022-08-16T08:06:29.519Z,4.10
2022-08-16T08:07:28.514Z,4.10
2022-08-16T08:08:50.877Z,4.40
2022-08-16T08:09:29.501Z,4.30
2022-08-16T08:10:29.492Z,4.30
2022-08-16T08:11:28.691Z,4.30
2022-08-16T08:12:32.126Z,4.20
2022-08-16T08:13:42.486Z,4.00
2022-08-16T08:14:30.374Z,4.50
2022-08-16T08:15:32.563Z,4.80
2022-08-16T08:16:30.705Z,4.40
2022-08-16T08:17:42.244Z,4.50
2022-08-16T08:18:31.113Z,4.10
2022-08-16T08:19:28.354Z,4.60
2022-08-16T08:20:28.711Z,4.20
2022-08-16T08:21:48.802Z,4.20
2022-08-16T08:22:29.285Z,4.30
2022-08-16T08:23:28.276Z,4.00
2022-08-16T08:24:32.027Z,4.20
2022-08-16T08:25:53.372Z,4.20
2022-08-16T08:26:29.220Z,4.20
2022-08-16T08:27:32.505Z,4.00
2022-08-16T08:28:28.218Z,4.20
2022-08-16T08:29:37.554Z,4.30
2022-08-16T08:30:52.234Z,4.30
2022-08-16T08:31:29.151Z,4.60
2022-08-16T08:32:57.919Z,4.30
2022-08-16T08:33:29.269Z,4.10
2022-08-16T08:34:28.112Z,4.00
2022-08-16T08:35:28.509Z,3.60
2022-08-16T08:36:32.950Z,4.20
2022-08-16T08:37:54.015Z,4.20
2022-08-16T08:38:43.981Z,4.10
2022-08-16T08:39:29.093Z,3.90
2022-08-16T08:40:28.058Z,3.80
2022-08-16T08:41:28.581Z,3.70
2022-08-16T08:42:28.150Z,3.90
2022-08-16T08:43:27.992Z,3.80
2022-08-16T08:44:31.015Z,4.00
2022-08-16T08:45:48.320Z,3.90
2022-08-16T08:46:35.681Z,4.10
2022-08-16T08:47:28.895Z,3.70
2022-08-16T08:48:32.944Z,4.10
2022-08-16T08:49:50.431Z,4.00
2022-08-16T08:50:28.849Z,3.60
2022-08-16T08:51:35.613Z,3.70
2022-08-16T08:52:35.452Z,3.60
2022-08-16T08:53:30.683Z,3.50
2022-08-16T08:54:28.808Z,3.30
2022-08-16T08:55:27.764Z,3.70
2022-08-16T08:56:27.747Z,3.70
2022-08-16T08:57:27.735Z,3.60
2022-08-16T08:58:34.459Z,3.70
2022-08-16T08:59:28.734Z,3.60
2022-08-16T09:00:30.248Z,3.20
2022-08-16T09:01:31.616Z,3.70
2022-08-16T09:02:28.653Z,3.60
2022-08-16T09:03:27.903Z,4.10
2022-08-16T09:04:27.712Z,3.70
2022-08-16T09:05:35.901Z,4.10
2022-08-16T09:06:28.588Z,4.10
2022-08-16T09:07:27.571Z,3.80
2022-08-16T09:08:27.591Z,3.90
2022-08-16T09:09:33.941Z,4.30
2022-08-16T09:10:29.445Z,3.60
2022-08-16T09:11:40.475Z,3.80
2022-08-16T09:12:30.237Z,3.50
2022-08-16T09:13:28.472Z,3.70
2022-08-16T09:14:27.483Z,3.80
2022-08-16T09:15:33.237Z,3.90
2022-08-16T09:17:02.771Z,4.10
2022-08-16T09:17:52.332Z,3.90
2022-08-16T09:18:35.872Z,3.80
2022-08-16T09:19:32.251Z,3.60
2022-08-16T09:20:28.359Z,4.00
2022-08-16T09:21:31.196Z,3.70
2022-08-16T09:22:27.330Z,4.20
2022-08-16T09:23:27.311Z,4.00
2022-08-16T09:24:52.946Z,3.60
2022-08-16T09:25:34.163Z,4.10
2022-08-16T09:26:45.290Z,4.00
2022-08-16T09:27:28.242Z,3.90
2022-08-16T09:29:06.750Z,4.00
2022-08-16T09:29:44.898Z,4.00
2022-08-16T09:30:33.518Z,4.00
2022-08-16T09:31:28.177Z,3.60
2022-08-16T09:32:30.362Z,3.60
2022-08-16T09:33:27.141Z,4.10
2022-08-16T09:34:28.149Z,3.80
2022-08-16T09:35:27.106Z,3.60
2022-08-16T09:36:32.600Z,3.30
2022-08-16T09:37:29.511Z,3.70
2022-08-16T09:38:32.493Z,3.60
2022-08-16T09:39:28.086Z,4.00
2022-08-16T09:40:33.274Z,4.00
2022-08-16T09:41:28.236Z,3.70
2022-08-16T09:42:26.993Z,3.80
2022-08-16T09:43:58.331Z,3.80
2022-08-16T09:45:11.370Z,3.90
2022-08-16T09:45:28.621Z,3.70
2022-08-16T09:46:44.360Z,3.60
2022-08-16T09:47:27.906Z,3.30
2022-08-16T09:48:37.177Z,3.80
2022-08-16T09:49:36.930Z,3.40
2022-08-16T09:50:37.307Z,3.90
2022-08-16T09:51:30.786Z,3.90
2022-08-16T09:52:27.821Z,3.60
2022-08-16T09:53:26.805Z,3.60
2022-08-16T09:54:32.206Z,3.40
2022-08-16T09:55:27.772Z,3.90
2022-08-16T09:56:26.759Z,3.50
2022-08-16T09:57:26.731Z,3.40
2022-08-16T09:58:41.932Z,3.30
2022-08-16T09:59:30.540Z,3.70
2022-08-16T10:00:44.299Z,3.50
2022-08-16T10:01:27.667Z,3.70
2022-08-16T10:02:27.977Z,3.50
2022-08-16T10:03:26.655Z,3.60
2022-08-16T10:04:30.257Z,3.60
2022-08-16T10:05:27.631Z,3.60
2022-08-16T10:06:26.579Z,3.20
2022-08-16T10:07:44.210Z,3.30
2022-08-16T10:08:27.681Z,3.50
2022-08-16T10:09:27.527Z,3.60
2022-08-16T10:10:30.929Z,3.70
2022-08-16T10:11:26.492Z,3.50
2022-08-16T10:12:28.161Z,3.40
2022-08-16T10:13:26.463Z,3.20
2022-08-16T10:14:33.081Z,3.10
2022-08-16T10:15:30.238Z,3.30
2022-08-16T10:16:26.412Z,3.30
2022-08-16T10:17:26.444Z,3.30
2022-08-16T10:18:56.070Z,3.40
2022-08-16T10:19:27.358Z,3.30
2022-08-16T10:20:26.375Z,3.40
2022-08-16T10:21:26.336Z,3.10
2022-08-16T10:22:26.312Z,3.10
2022-08-16T10:23:26.293Z,3.00
2022-08-16T10:24:28.728Z,3.10
2022-08-16T10:27:16.983Z,3.10
2022-08-16T10:27:17.133Z,2.80
2022-08-16T10:27:29.916Z,3.00
2022-08-16T10:28:28.529Z,2.90
2022-08-16T10:30:01.159Z,2.90
2022-08-16T10:30:28.698Z,3.10
2022-08-16T10:31:45.571Z,3.00
2022-08-16T10:32:27.138Z,2.90
2022-08-16T10:33:26.118Z,3.20
2022-08-16T10:34:32.166Z,2.90
2022-08-16T10:35:32.878Z,2.80
2022-08-16T10:36:38.656Z,2.80
2022-08-16T10:37:36.285Z,2.90
2022-08-16T10:38:27.703Z,2.80
2022-08-16T10:39:26.078Z,2.90
2022-08-16T10:40:29.047Z,3.20
2022-08-16T10:41:25.982Z,3.00
2022-08-16T10:42:25.963Z,2.90
2022-08-16T10:43:25.944Z,2.90
2022-08-16T10:44:26.930Z,3.20
2022-08-16T10:45:27.344Z,3.10
2022-08-16T10:46:39.279Z,3.00
2022-08-16T10:47:28.159Z,3.10
2022-08-16T10:48:28.647Z,3.00
2022-08-16T10:49:25.840Z,2.80
2022-08-16T10:50:25.849Z,2.80
2022-08-16T10:51:34.385Z,2.90
2022-08-16T10:52:26.784Z,3.10
2022-08-16T10:53:26.769Z,2.80
2022-08-16T10:54:29.193Z,3.00
2022-08-16T10:55:44.612Z,3.20
2022-08-16T10:56:52.435Z,3.10
2022-08-16T10:57:26.697Z,3.00
2022-08-16T10:58:34.321Z,3.20
2022-08-16T10:59:38.355Z,3.00
2022-08-16T11:00:27.684Z,3.20
2022-08-16T11:01:39.931Z,3.00
2022-08-16T11:02:58.007Z,3.00
2022-08-16T11:03:45.766Z,3.10
2022-08-16T11:05:05.386Z,3.20
2022-08-16T11:05:27.954Z,2.70
2022-08-16T11:06:26.782Z,3.00
2022-08-16T11:07:55.387Z,2.90
2022-08-16T11:08:35.549Z,3.30
2022-08-16T11:09:29.022Z,3.10
2022-08-16T11:11:27.455Z,3.30
2022-08-16T11:12:25.438Z,3.20
2022-08-16T11:14:27.408Z,3.00
2022-08-16T11:15:26.248Z,3.20
2022-08-16T11:16:26.410Z,3.10
2022-08-16T11:17:26.349Z,3.20
2022-08-16T11:18:49.039Z,3.20
2022-08-16T11:19:26.307Z,3.30
2022-08-16T11:20:42.544Z,3.20
2022-08-16T11:21:28.525Z,3.20
2022-08-16T11:22:47.737Z,3.30
2022-08-16T11:23:26.240Z,3.10
2022-08-16T11:24:41.822Z,3.00
2022-08-16T11:26:27.186Z,3.40
2022-08-16T11:27:35.312Z,3.40
2022-08-16T11:29:27.136Z,3.20
2022-08-16T11:30:28.445Z,3.30
2022-08-16T11:31:26.097Z,3.20
2022-08-16T11:32:29.853Z,3.10
2022-08-16T11:33:52.015Z,3.10
2022-08-16T11:34:35.181Z,3.40
2022-08-16T11:36:27.944Z,3.10
2022-08-16T11:37:27.603Z,3.30
2022-08-16T11:38:51.167Z,3.10
2022-08-16T11:39:25.991Z,3.20
2022-08-16T11:40:24.969Z,3.20
2022-08-16T11:41:25.920Z,3.20
2022-08-16T11:42:29.755Z,3.10
2022-08-16T11:43:26.455Z,3.20
2022-08-16T11:44:51.948Z,3.20
2022-08-16T11:45:25.877Z,3.00
2022-08-16T11:46:43.821Z,3.30
2022-08-16T11:47:25.816Z,3.10
2022-08-16T11:48:24.806Z,3.10
2022-08-16T11:49:24.785Z,3.30
2022-08-16T11:50:24.794Z,3.20
2022-08-16T11:51:24.745Z,3.30
2022-08-16T11:52:24.728Z,3.10
2022-08-16T11:53:24.710Z,3.20
2022-08-16T11:54:33.144Z,3.20
2022-08-16T11:55:26.702Z,3.30
2022-08-16T11:56:39.564Z,3.30
2022-08-16T11:57:25.647Z,3.20
2022-08-16T11:58:24.797Z,3.20
2022-08-16T11:59:25.506Z,3.00
2022-08-16T12:00:34.240Z,3.10
2022-08-16T12:01:29.887Z,3.30
2022-08-16T12:02:31.814Z,3.40
2022-08-16T12:03:31.079Z,3.30
2022-08-16T12:04:26.585Z,2.90
2022-08-16T12:05:24.530Z,3.10
2022-08-16T12:06:30.651Z,3.20
2022-08-16T12:07:25.468Z,3.10
2022-08-16T12:08:26.384Z,3.00
2022-08-16T12:09:24.783Z,3.20
2022-08-16T12:10:24.437Z,3.40
2022-08-16T12:11:26.549Z,3.00
2022-08-16T12:12:24.395Z,3.20
2022-08-16T12:13:24.364Z,3.10
2022-08-16T12:14:24.352Z,3.20
2022-08-16T12:15:24.352Z,3.20
2022-08-16T12:16:24.301Z,3.10
2022-08-16T12:17:26.283Z,3.10
2022-08-16T12:18:24.269Z,3.00
2022-08-16T12:19:35.264Z,3.40
2022-08-16T12:20:25.257Z,3.20
2022-08-16T12:21:24.214Z,3.10
2022-08-16T12:22:24.200Z,3.10
2022-08-16T12:23:24.178Z,3.10
2022-08-16T12:24:24.159Z,3.10
2022-08-16T12:25:24.173Z,3.20
2022-08-16T12:26:24.129Z,3.00
2022-08-16T12:27:24.279Z,3.40
2022-08-16T12:28:36.865Z,3.10
2022-08-16T12:29:25.895Z,3.10
2022-08-16T12:30:27.116Z,2.90
2022-08-16T12:31:25.038Z,3.20
2022-08-16T12:32:38.310Z,3.00
2022-08-16T12:33:25.441Z,3.20
2022-08-16T12:34:29.235Z,3.10
2022-08-16T12:35:24.967Z,3.20
2022-08-16T12:36:23.951Z,3.10
2022-08-16T12:37:24.284Z,3.20
2022-08-16T12:38:40.826Z,3.20
2022-08-16T12:39:28.914Z,3.00
2022-08-16T12:40:25.210Z,3.00
2022-08-16T12:41:25.277Z,3.40
2022-08-16T12:42:34.400Z,3.10
2022-08-16T12:43:24.826Z,3.10
2022-08-16T12:44:23.831Z,3.00
2022-08-16T12:45:23.822Z,3.10
2022-08-16T12:46:23.786Z,3.10
2022-08-16T12:47:23.748Z,3.00
2022-08-16T12:48:33.510Z,3.10
2022-08-16T12:49:25.727Z,2.90
2022-08-16T12:50:23.729Z,3.10
2022-08-16T12:51:24.691Z,3.10
2022-08-16T12:52:33.038Z,3.50
2022-08-16T12:53:24.644Z,3.80
2022-08-16T12:54:23.653Z,3.80
2022-08-16T12:55:23.606Z,3.70
2022-08-16T12:56:25.260Z,4.00
2022-08-16T12:57:23.571Z,4.00
2022-08-16T12:58:49.080Z,4.20
2022-08-16T12:59:24.566Z,4.10
2022-08-16T13:00:26.818Z,4.10
2022-08-16T13:01:24.543Z,4.40
2022-08-16T13:02:33.905Z,4.30
2022-08-16T13:03:24.465Z,4.50
2022-08-16T13:04:24.610Z,4.40
2022-08-16T13:05:23.486Z,4.60
2022-08-16T13:06:29.419Z,4.50
2022-08-16T13:07:27.210Z,4.10
2022-08-16T13:08:27.495Z,4.20
2022-08-16T13:09:26.845Z,4.30
2022-08-16T13:10:37.054Z,4.10
2022-08-16T13:11:24.323Z,4.00
2022-08-16T13:12:23.307Z,4.20
2022-08-16T13:13:23.287Z,4.10
2022-08-16T13:14:32.087Z,3.80
2022-08-16T13:15:24.246Z,4.00
2022-08-16T13:16:23.530Z,4.40
2022-08-16T13:17:23.206Z,4.30
2022-08-16T13:18:33.621Z,4.40
2022-08-16T13:19:24.203Z,4.20
2022-08-16T13:20:24.157Z,4.20
2022-08-16T13:21:23.399Z,4.20
2022-08-16T13:22:23.121Z,4.30
2022-08-16T13:23:23.099Z,4.30